Time;durP1;ratioP1;P1;durP2;ratioP2;P2;SDS_P1;SDS_P2;PMS_P1;PMS_P2;Temp;Humidity;BMP_temperature;BMP_pressure;BME280_temperature;BME280_humidity;BME280_pressure;Samples;Min_cycle;Max_cycle;Signal;HPM_P1;HPM_P2
2022/10/22 00:02:07;;;;;;;7.70;4.90;;;;;;;11.55;100.00;100812.50;5009650;28;20057;-75
2022/10/22 00:04:33;;;;;;;10.23;5.10;;;;;;;11.56;100.00;100803.31;5009155;28;20080;-74
2022/10/22 00:06:58;;;;;;;8.98;4.72;;;;;;;11.54;100.00;100799.84;5009139;28;20029;-74
2022/10/22 00:09:24;;;;;;;8.98;4.78;;;;;;;11.53;100.00;100805.44;5021423;28;20485;-74
2022/10/22 00:11:50;;;;;;;5.32;4.28;;;;;;;11.53;100.00;100808.16;5016122;28;20503;-74
2022/10/22 00:14:15;;;;;;;8.60;4.35;;;;;;;11.53;100.00;100803.56;5027111;28;20044;-74
2022/10/22 00:16:41;;;;;;;13.35;5.20;;;;;;;11.50;100.00;100810.13;5028718;28;20044;-74
2022/10/22 00:19:08;;;;;;;8.05;4.43;;;;;;;11.54;100.00;100807.16;5018379;28;20053;-75
2022/10/22 00:21:34;;;;;;;11.27;4.82;;;;;;;11.54;100.00;100805.31;5008929;28;20393;-74
2022/10/22 00:23:59;;;;;;;9.60;4.82;;;;;;;11.50;100.00;100801.06;5009578;28;20342;-76
2022/10/22 00:26:24;;;;;;;6.43;4.00;;;;;;;11.47;100.00;100799.47;5008798;28;20415;-75
2022/10/22 00:28:50;;;;;;;8.48;4.75;;;;;;;11.45;100.00;100803.28;5008690;28;20138;-75
2022/10/22 00:31:15;;;;;;;7.07;4.78;;;;;;;11.37;100.00;100801.16;5023285;28;20040;-75
2022/10/22 00:33:41;;;;;;;7.68;3.70;;;;;;;11.35;100.00;100799.53;5009388;28;20072;-74
2022/10/22 00:36:07;;;;;;;8.88;4.28;;;;;;;11.33;100.00;100799.66;5009182;28;20057;-75
2022/10/22 00:38:34;;;;;;;8.05;3.88;;;;;;;11.32;100.00;100797.91;5008869;28;20022;-74
2022/10/22 00:40:59;;;;;;;6.60;4.03;;;;;;;11.32;100.00;100807.94;5007972;28;20044;-74
2022/10/22 00:43:26;;;;;;;8.35;4.10;;;;;;;11.29;100.00;100803.59;5008812;28;20046;-75
2022/10/22 00:45:51;;;;;;;6.43;4.75;;;;;;;11.29;100.00;100809.06;5008818;28;20084;-74
2022/10/22 00:48:29;;;;;;;8.65;4.22;;;;;;;11.35;100.00;100808.56;5008585;28;20034;-75
2022/10/22 00:51:05;;;;;;;11.60;4.85;;;;;;;11.32;100.00;100807.94;5008710;28;20064;-75
2022/10/22 00:53:54;;;;;;;10.95;4.18;;;;;;;11.37;100.00;100808.44;5008383;28;20045;-75
2022/10/22 00:56:21;;;;;;;6.13;4.00;;;;;;;11.33;100.00;100807.84;5008742;28;20056;-74
2022/10/22 00:58:53;;;;;;;10.32;4.82;;;;;;;11.34;100.00;100806.84;5008487;28;20038;-74
2022/10/22 01:01:24;;;;;;;9.13;4.83;;;;;;;11.38;100.00;100810.22;5007234;28;20046;-74
2022/10/22 01:03:51;;;;;;;9.53;4.90;;;;;;;11.46;100.00;100795.00;5008245;28;20652;-74
2022/10/22 01:06:29;;;;;;;7.38;4.68;;;;;;;11.49;100.00;100796.63;5008463;28;20613;-74
2022/10/22 01:09:06;;;;;;;10.75;5.32;;;;;;;11.48;100.00;100801.22;5007918;28;20042;-74
2022/10/22 01:12:02;;;;;;;12.05;5.13;;;;;;;11.49;100.00;100802.06;5006874;28;20048;-74
2022/10/22 01:14:59;;;;;;;13.00;4.53;;;;;;;11.46;100.00;100802.28;5003087;28;20046;-74
2022/10/22 01:17:38;;;;;;;9.65;4.60;;;;;;;11.48;100.00;100798.47;5023646;28;20393;-75
2022/10/22 01:20:26;;;;;;;10.75;4.82;;;;;;;11.46;100.00;100803.16;5008098;28;20037;-75
2022/10/22 01:23:20;;;;;;;9.90;4.22;;;;;;;11.49;100.00;100802.06;5008541;28;20038;-74
2022/10/22 01:25:56;;;;;;;12.88;5.20;;;;;;;11.59;100.00;100799.50;5008355;28;20034;-74
2022/10/22 01:28:49;;;;;;;12.65;4.90;;;;;;;11.63;100.00;100795.56;5008050;28;20045;-74
2022/10/22 01:31:15;;;;;;;;;;;;;;;11.66;100.00;100798.91;5010146;28;20052;-75
2022/10/22 01:33:44;;;;;;;10.10;5.22;;;;;;;11.71;100.00;100793.09;5010016;28;19924;-74
2022/10/22 01:36:12;;;;;;;11.10;5.07;;;;;;;11.74;100.00;100796.44;4994630;28;20121;-74
2022/10/22 01:38:40;;;;;;;17.42;6.15;;;;;;;11.78;100.00;100797.06;5012613;28;20050;-74
2022/10/22 01:41:06;;;;;;;12.02;6.15;;;;;;;11.79;100.00;100801.53;5031880;28;20021;-74
2022/10/22 01:43:31;;;;;;;10.07;4.95;;;;;;;11.83;100.00;100794.88;5019898;28;20048;-74
2022/10/22 01:46:01;;;;;;;17.83;5.60;;;;;;;11.84;100.00;100793.88;5011916;28;20040;-74
2022/10/22 01:48:43;;;;;;;13.07;5.55;;;;;;;11.88;100.00;100794.53;5011477;28;20041;-74
2022/10/22 01:51:27;;;;;;;9.18;5.18;;;;;;;11.90;100.00;100792.56;5012140;28;20092;-74
2022/10/22 01:54:00;;;;;;;14.07;5.95;;;;;;;11.85;100.00;100787.47;5016050;28;20045;-74
2022/10/22 01:56:44;;;;;;;10.02;5.18;;;;;;;11.84;100.00;100791.16;5011870;28;20061;-74
2022/10/22 01:59:28;;;;;;;12.02;5.40;;;;;;;11.84;100.00;100801.19;5004840;28;20033;-74
2022/10/22 02:02:09;;;;;;;12.13;5.38;;;;;;;11.79;100.00;100792.50;5024809;28;20056;-74
2022/10/22 02:04:49;;;;;;;10.07;4.88;;;;;;;11.77;100.00;100803.53;5009760;28;20519;-74
2022/10/22 02:07:20;;;;;;;14.30;5.32;;;;;;;11.76;100.00;100807.25;5011471;28;20049;-74
2022/10/22 02:09:45;;;;;;;11.10;4.93;;;;;;;11.74;100.00;100799.16;5029912;28;20500;-74
2022/10/22 02:12:12;;;;;;;11.55;4.75;;;;;;;11.71;100.00;100804.00;5031123;28;20033;-74
2022/10/22 02:14:42;;;;;;;15.98;5.30;;;;;;;11.69;100.00;100801.38;5017022;28;20519;-74
2022/10/22 02:17:13;;;;;;;9.35;5.35;;;;;;;11.70;100.00;100803.16;5011627;28;20515;-74
2022/10/22 02:19:51;;;;;;;10.43;5.30;;;;;;;11.65;100.00;100813.50;5011412;28;20042;-75
2022/10/22 02:22:17;;;;;;;13.02;5.60;;;;;;;11.71;100.00;100809.47;5010617;28;20045;-74
2022/10/22 02:24:43;;;;;;;10.30;4.45;;;;;;;11.66;100.00;100796.19;5021406;28;20025;-74
2022/10/22 02:27:41;;;;;;;13.68;5.43;;;;;;;11.62;100.00;100796.56;5010163;28;20492;-75
2022/10/22 02:30:19;;;;;;;15.13;5.15;;;;;;;11.57;100.00;100802.34;5007483;28;20522;-75
2022/10/22 02:33:08;;;;;;;9.80;5.35;;;;;;;11.56;100.00;100800.59;5030519;28;20043;-75
2022/10/22 02:35:35;;;;;;;14.77;5.85;;;;;;;11.54;100.00;100799.00;5010908;28;20037;-75
2022/10/22 02:38:02;;;;;;;12.20;5.38;;;;;;;11.55;100.00;100803.44;5016082;28;20045;-75
2022/10/22 02:40:29;;;;;;;10.20;5.47;;;;;;;11.49;100.00;100783.00;5015698;28;20045;-75
2022/10/22 02:42:55;;;;;;;9.18;5.45;;;;;;;11.46;100.00;100792.25;5011023;28;20042;-75
2022/10/22 02:45:21;;;;;;;14.23;5.15;;;;;;;11.45;100.00;100798.72;5010516;28;20029;-75
2022/10/22 02:47:47;;;;;;;13.23;5.80;;;;;;;11.41;100.00;100797.19;5010774;28;20119;-75
2022/10/22 02:50:12;;;;;;;8.52;5.18;;;;;;;11.39;100.00;100804.63;5010729;28;20057;-75
2022/10/22 02:52:38;;;;;;;10.20;5.15;;;;;;;11.37;100.00;100803.00;5012940;28;20049;-75
2022/10/22 02:55:04;;;;;;;11.30;5.35;;;;;;;11.34;100.00;100811.44;5018575;28;20030;-75
2022/10/22 02:57:30;;;;;;;12.73;5.47;;;;;;;11.36;100.00;100802.13;5010561;28;20200;-74
2022/10/22 02:59:55;;;;;;;14.35;5.43;;;;;;;11.42;100.00;100803.50;5009161;28;20124;-74
2022/10/22 03:02:21;;;;;;;9.00;5.80;;;;;;;11.39;100.00;100807.34;5010777;28;20460;-75
2022/10/22 03:04:46;;;;;;;8.73;6.18;;;;;;;11.43;100.00;100808.00;5008724;28;20389;-74
2022/10/22 03:07:12;;;;;;;15.82;5.57;;;;;;;11.40;100.00;100809.09;5010770;28;20397;-74
2022/10/22 03:09:37;;;;;;;16.13;5.22;;;;;;;11.42;100.00;100807.13;5010375;28;20049;-75
2022/10/22 03:12:03;;;;;;;13.60;6.10;;;;;;;11.42;100.00;100809.84;5019888;28;20030;-75
2022/10/22 03:14:28;;;;;;;14.25;6.20;;;;;;;11.45;100.00;100809.59;5010352;28;20412;-75
2022/10/22 03:16:54;;;;;;;12.73;5.80;;;;;;;11.44;100.00;100807.88;5008827;28;20046;-75
2022/10/22 03:19:19;;;;;;;9.90;5.25;;;;;;;11.43;100.00;100808.00;5008697;28;20033;-75
2022/10/22 03:21:49;;;;;;;12.02;5.90;;;;;;;11.42;100.00;100814.41;5010118;28;20064;-74
2022/10/22 03:24:19;;;;;;;8.95;5.82;;;;;;;11.39;100.00;100825.56;5013505;28;20033;-75
2022/10/22 03:26:46;;;;;;;8.10;5.47;;;;;;;11.36;100.00;100825.78;5029710;28;20072;-74
2022/10/22 03:29:14;;;;;;;11.63;5.63;;;;;;;11.35;100.00;100822.19;5029750;28;20029;-74
2022/10/22 03:31:39;;;;;;;17.83;5.78;;;;;;;11.36;100.00;100825.78;5026942;28;20114;-75
2022/10/22 03:34:04;;;;;;;11.70;5.55;;;;;;;11.38;100.00;100823.84;5009328;28;20420;-75
2022/10/22 03:36:31;;;;;;;11.93;6.00;;;;;;;11.41;100.00;100827.16;5009924;28;20460;-75
2022/10/22 03:38:57;;;;;;;14.18;5.22;;;;;;;11.37;100.00;100825.66;5020378;28;20025;-74
2022/10/22 03:41:22;;;;;;;18.65;5.93;;;;;;;11.34;100.00;100825.91;5009862;28;20380;-74
2022/10/22 03:43:51;;;;;;;13.00;5.80;;;;;;;11.36;100.00;100832.09;5019777;28;20038;-75
2022/10/22 03:46:17;;;;;;;14.52;5.47;;;;;;;11.34;100.00;100830.50;5008630;28;20096;-74
2022/10/22 03:48:43;;;;;;;12.27;5.40;;;;;;;11.35;100.00;100840.41;5013935;28;20040;-75
2022/10/22 03:51:09;;;;;;;13.57;6.18;;;;;;;11.32;100.00;100844.19;5028478;28;20025;-75
2022/10/22 03:53:34;;;;;;;15.75;6.75;;;;;;;11.35;100.00;100843.13;5015425;28;20038;-75
2022/10/22 03:56:00;;;;;;;14.88;5.65;;;;;;;11.32;100.00;100852.38;5009528;28;20025;-75
2022/10/22 03:58:25;;;;;;;13.18;5.45;;;;;;;11.31;100.00;100858.81;5009549;28;20107;-75
2022/10/22 04:00:51;;;;;;;14.88;6.00;;;;;;;11.29;100.00;100844.47;5009378;28;20085;-75
2022/10/22 04:03:16;;;;;;;14.05;6.22;;;;;;;11.27;100.00;100843.69;5009332;28;20036;-75
2022/10/22 04:05:41;;;;;;;16.33;6.53;;;;;;;11.32;100.00;100843.34;5009245;28;20045;-74
2022/10/22 04:08:07;;;;;;;8.77;5.40;;;;;;;11.33;100.00;100850.50;5008110;28;20436;-74
2022/10/22 04:10:32;;;;;;;14.35;5.93;;;;;;;11.33;100.00;100848.69;5009385;28;20468;-74
2022/10/22 04:12:57;;;;;;;15.60;5.78;;;;;;;11.31;100.00;100850.66;5009543;28;20037;-75
2022/10/22 04:15:26;;;;;;;14.40;6.10;;;;;;;11.33;100.00;100853.25;5007851;28;20050;-75
2022/10/22 04:17:52;;;;;;;18.23;5.47;;;;;;;11.31;100.00;100845.19;5009214;28;20041;-74
2022/10/22 04:20:17;;;;;;;16.17;5.68;;;;;;;11.42;100.00;100856.16;5026426;28;20480;-75
2022/10/22 04:22:42;;;;;;;17.48;5.50;;;;;;;11.41;100.00;100861.72;5023988;28;20381;-75
2022/10/22 04:25:08;;;;;;;13.60;5.88;;;;;;;11.39;100.00;100861.84;5009856;28;20388;-74
2022/10/22 04:27:34;;;;;;;18.98;6.20;;;;;;;11.41;100.00;100859.84;5009361;28;20392;-74
2022/10/22 04:30:01;;;;;;;20.85;5.60;;;;;;;11.39;100.00;100856.38;5007649;28;20654;-75
2022/10/22 04:32:27;;;;;;;14.45;5.25;;;;;;;11.42;100.00;100858.91;5009162;28;20489;-75
2022/10/22 04:34:53;;;;;;;13.48;5.10;;;;;;;11.45;100.00;100858.63;5007790;28;20532;-75
2022/10/22 04:37:19;;;;;;;18.63;5.40;;;;;;;11.46;100.00;100856.78;5007698;28;20046;-74
2022/10/22 04:39:44;;;;;;;14.00;5.68;;;;;;;11.46;100.00;100860.38;5008572;28;20025;-74
2022/10/22 04:42:10;;;;;;;17.80;5.60;;;;;;;11.46;100.00;100860.38;5007471;28;20045;-75
2022/10/22 04:44:35;;;;;;;19.40;6.03;;;;;;;11.49;100.00;100856.56;5008235;28;20103;-75
2022/10/22 04:47:00;;;;;;;14.00;5.28;;;;;;;11.44;100.00;100861.50;5006891;28;20033;-75
2022/10/22 04:49:26;;;;;;;9.20;4.75;;;;;;;11.42;100.00;100867.06;5007873;28;20113;-74
2022/10/22 04:51:51;;;;;;;14.98;5.40;;;;;;;11.49;100.00;100876.50;5008166;28;20345;-75
2022/10/22 04:54:16;;;;;;;16.02;5.78;;;;;;;11.50;100.00;100871.91;4990184;28;20034;-75
2022/10/22 04:56:42;;;;;;;18.55;5.35;;;;;;;11.44;100.00;100865.06;5008343;28;20044;-74
2022/10/22 04:59:09;;;;;;;21.02;6.22;;;;;;;11.43;100.00;100867.94;5015053;28;20032;-74
2022/10/22 05:01:38;;;;;;;15.35;5.07;;;;;;;11.43;100.00;100874.25;5027656;28;20041;-74
2022/10/22 05:04:05;;;;;;;14.70;5.95;;;;;;;11.45;100.00;100874.13;5018344;28;20034;-74
2022/10/22 05:06:32;;;;;;;15.07;4.90;;;;;;;11.46;100.00;100871.25;5009337;28;20577;-74
2022/10/22 05:09:04;;;;;;;15.07;5.47;;;;;;;11.46;100.00;100871.25;5011595;28;20108;-74
2022/10/22 05:11:35;;;;;;;16.63;4.95;;;;;;;11.53;100.00;100870.81;5012948;28;20397;-74
2022/10/22 05:14:04;;;;;;;16.50;6.37;;;;;;;11.56;100.00;100873.28;5015450;28;20033;-74
2022/10/22 05:16:31;;;;;;;16.63;6.10;;;;;;;11.63;100.00;100875.44;5011326;28;20361;-74
2022/10/22 05:18:58;;;;;;;13.35;5.35;;;;;;;11.68;100.00;100886.00;5011121;28;20544;-74
2022/10/22 05:21:23;;;;;;;17.45;6.07;;;;;;;11.71;100.00;100885.78;5011456;28;20235;-74
2022/10/22 05:23:49;;;;;;;14.15;5.15;;;;;;;11.75;100.00;100887.28;5010873;28;20148;-74
2022/10/22 05:26:17;;;;;;;14.07;5.25;;;;;;;11.75;100.00;100887.28;5030860;28;20370;-73
2022/10/22 05:28:43;;;;;;;20.55;5.50;;;;;;;11.82;100.00;100890.38;5030767;28;20038;-74
2022/10/22 05:31:11;;;;;;;30.38;6.60;;;;;;;11.86;100.00;100878.28;5023355;28;20083;-74
2022/10/22 05:33:37;;;;;;;14.88;4.82;;;;;;;11.84;100.00;100882.97;5007409;28;99580;-75
2022/10/22 05:36:05;;;;;;;13.18;5.75;;;;;;;11.88;100.00;100884.50;5011759;28;20042;-74
2022/10/22 05:38:32;;;;;;;14.00;4.95;;;;;;;11.92;100.00;100884.13;5012488;28;20061;-74
2022/10/22 05:41:03;;;;;;;19.38;6.53;;;;;;;12.00;100.00;100883.53;5012238;28;20118;-74
2022/10/22 05:43:28;;;;;;;22.30;5.75;;;;;;;12.04;100.00;100895.97;5010737;28;20088;-74
2022/10/22 05:45:54;;;;;;;16.02;5.38;;;;;;;12.02;100.00;100895.19;5012182;28;20469;-74
2022/10/22 05:48:19;;;;;;;18.23;4.95;;;;;;;12.00;100.00;100898.03;5011986;28;20141;-74
2022/10/22 05:50:49;;;;;;;15.27;5.15;;;;;;;12.00;100.00;100900.78;5012020;28;20049;-74
2022/10/22 05:53:17;;;;;;;15.10;4.78;;;;;;;12.00;100.00;100905.38;5012135;28;20030;-74
2022/10/22 05:55:43;;;;;;;16.60;5.07;;;;;;;11.98;100.00;100913.66;5012153;28;20113;-74
2022/10/22 05:58:13;;;;;;;13.20;4.40;;;;;;;11.99;100.00;100909.09;5012529;28;20112;-74
2022/10/22 06:00:38;;;;;;;12.48;3.53;;;;;;;12.05;100.00;100908.59;5019745;28;20239;-75
2022/10/22 06:03:04;;;;;;;14.48;4.45;;;;;;;12.03;100.00;100916.03;5002516;28;20030;-74
2022/10/22 06:05:30;;;;;;;14.85;4.10;;;;;;;11.99;100.00;100915.41;5018760;28;20034;-74
2022/10/22 06:07:56;;;;;;;13.95;4.07;;;;;;;11.99;100.00;100915.41;5020925;28;20053;-74
2022/10/22 06:10:22;;;;;;;15.43;4.30;;;;;;;11.96;100.00;100918.34;5020682;28;20076;-74
2022/10/22 06:12:48;;;;;;;10.23;3.97;;;;;;;11.94;100.00;100924.94;5019957;28;20497;-74
2022/10/22 06:15:16;;;;;;;18.38;3.97;;;;;;;11.93;100.00;100934.06;5019854;28;20113;-74
2022/10/22 06:17:43;;;;;;;7.90;4.53;;;;;;;11.90;100.00;100926.16;5019875;28;20131;-74
2022/10/22 06:20:09;;;;;;;11.70;3.70;;;;;;;11.91;100.00;100936.06;5021965;28;20025;-74
2022/10/22 06:22:34;;;;;;;12.10;3.58;;;;;;;11.88;100.00;100944.47;5018402;28;20058;-74
2022/10/22 06:25:00;;;;;;;11.43;4.20;;;;;;;11.85;100.00;100936.53;5023493;28;20037;-74
2022/10/22 06:27:25;;;;;;;15.43;3.97;;;;;;;11.98;100.00;100943.66;5015716;28;20038;-75
2022/10/22 06:29:50;;;;;;;14.18;4.05;;;;;;;12.02;100.00;100957.03;5014767;28;20088;-74
2022/10/22 06:32:16;;;;;;;10.63;3.70;;;;;;;12.04;100.00;100955.94;5017136;28;20038;-74
2022/10/22 06:34:41;;;;;;;11.25;3.40;;;;;;;12.03;100.00;100953.31;5016986;28;20046;-74
2022/10/22 06:37:08;;;;;;;10.32;3.75;;;;;;;12.00;100.00;100960.75;5016957;28;20120;-74
2022/10/22 06:39:33;;;;;;;10.27;3.97;;;;;;;12.03;100.00;100966.94;5013411;28;20029;-74
2022/10/22 06:41:58;;;;;;;18.13;3.60;;;;;;;12.04;100.00;100975.03;5019838;28;20056;-74
2022/10/22 06:44:31;;;;;;;8.05;3.45;;;;;;;12.03;100.00;100973.31;5017168;28;20040;-75
2022/10/22 06:46:57;;;;;;;7.88;3.80;;;;;;;12.07;100.00;100980.22;5019168;28;20025;-74
2022/10/22 06:49:22;;;;;;;10.95;3.58;;;;;;;12.08;100.00;100982.00;5019591;28;20076;-75
2022/10/22 06:51:52;;;;;;;7.93;3.33;;;;;;;12.10;100.00;100979.16;5019505;28;20382;-75
2022/10/22 06:54:17;;;;;;;12.38;3.33;;;;;;;12.13;100.00;100987.97;5016403;28;20555;-75
2022/10/22 06:56:43;;;;;;;10.65;3.20;;;;;;;12.15;100.00;100996.03;5011375;28;20030;-75
2022/10/22 06:59:08;;;;;;;10.63;3.40;;;;;;;12.15;100.00;100998.75;5010866;28;20034;-76
2022/10/22 07:01:34;;;;;;;9.68;3.58;;;;;;;12.16;100.00;101004.06;5017751;28;20040;-74
2022/10/22 07:04:00;;;;;;;13.00;3.33;;;;;;;12.14;100.00;101007.94;5020973;28;20034;-74
2022/10/22 07:06:27;;;;;;;15.70;3.95;;;;;;;12.13;100.00;101015.25;5010579;28;20064;-74
2022/10/22 07:08:54;;;;;;;14.77;4.25;;;;;;;12.14;100.00;101014.25;5010627;28;20413;-74
2022/10/22 07:11:22;;;;;;;9.02;3.00;;;;;;;12.19;100.00;101022.06;5009159;28;20087;-74
2022/10/22 07:13:48;;;;;;;17.67;3.42;;;;;;;12.22;100.00;101030.91;5008450;28;20041;-74
2022/10/22 07:16:14;;;;;;;10.90;3.17;;;;;;;12.33;100.00;101029.22;5010665;28;20556;-74
2022/10/22 07:18:40;;;;;;;13.82;2.88;;;;;;;12.43;100.00;101032.97;5010501;28;20038;-74
2022/10/22 07:21:07;;;;;;;12.23;3.00;;;;;;;12.49;100.00;101027.88;5014987;28;20477;-74
2022/10/22 07:23:32;;;;;;;10.95;3.15;;;;;;;12.69;100.00;101028.22;5019333;28;20481;-75
2022/10/22 07:25:58;;;;;;;11.60;3.13;;;;;;;12.70;100.00;101032.69;5009844;28;20096;-74
2022/10/22 07:28:24;;;;;;;14.57;2.80;;;;;;;12.66;100.00;101039.38;5009299;28;20045;-75
2022/10/22 07:30:49;;;;;;;8.32;2.40;;;;;;;12.60;100.00;101032.53;5009978;28;20038;-75
2022/10/22 07:33:15;;;;;;;11.30;3.38;;;;;;;12.61;100.00;101044.31;5007964;28;20057;-74
2022/10/22 07:35:41;;;;;;;11.60;2.90;;;;;;;12.61;100.00;101041.59;5008993;28;20041;-74
2022/10/22 07:38:07;;;;;;;8.18;3.30;;;;;;;12.70;100.00;101051.78;5010873;28;20042;-75
2022/10/22 07:40:33;;;;;;;9.50;3.22;;;;;;;12.81;100.00;101057.25;5014960;28;20504;-74
2022/10/22 07:42:58;;;;;;;11.32;3.33;;;;;;;12.88;100.00;101055.81;5010142;28;20030;-75
2022/10/22 07:45:24;;;;;;;10.95;3.28;;;;;;;12.97;100.00;101055.06;5009567;28;20069;-74
2022/10/22 07:47:49;;;;;;;11.40;3.17;;;;;;;13.06;100.00;101061.69;5008439;28;20416;-74
2022/10/22 07:50:14;;;;;;;12.48;2.85;;;;;;;13.12;100.00;101063.03;5011759;28;20025;-74
2022/10/22 07:52:40;;;;;;;12.63;4.32;;;;;;;13.19;100.00;101064.28;5015883;28;20018;-74
2022/10/22 07:55:06;;;;;;;7.82;2.70;;;;;;;13.25;100.00;101067.44;5012426;28;20068;-74
2022/10/22 07:57:31;;;;;;;10.43;2.78;;;;;;;13.31;100.00;101070.66;5021378;28;20369;-75
2022/10/22 07:59:57;;;;;;;8.68;2.75;;;;;;;13.36;100.00;101069.31;5023781;28;20033;-74
2022/10/22 08:02:23;;;;;;;12.75;2.53;;;;;;;13.39;100.00;101081.88;5015009;28;20087;-74
2022/10/22 08:04:48;;;;;;;12.38;3.95;;;;;;;13.40;100.00;101075.41;5023540;28;20514;-74
2022/10/22 08:07:14;;;;;;;11.25;3.00;;;;;;;13.45;100.00;101084.09;5023310;28;20034;-74
2022/10/22 08:09:39;;;;;;;9.10;2.85;;;;;;;13.48;100.00;101086.59;5015312;28;20592;-74
2022/10/22 08:12:05;;;;;;;8.82;2.50;;;;;;;13.51;100.00;101081.72;5012044;28;20104;-74
2022/10/22 08:14:30;;;;;;;16.85;2.80;;;;;;;13.58;100.00;101084.84;5016875;28;20037;-75
2022/10/22 08:16:56;;;;;;;11.20;2.47;;;;;;;13.62;100.00;101077.25;5012376;28;20048;-74
2022/10/22 08:19:21;;;;;;;11.93;2.40;;;;;;;13.73;100.00;101086.31;5007731;28;20536;-74
2022/10/22 08:21:47;;;;;;;8.13;2.42;;;;;;;13.78;100.00;101085.94;5021309;28;20112;-74
2022/10/22 08:24:13;;;;;;;12.65;2.10;;;;;;;13.82;100.00;101092.03;5023322;28;20041;-74
2022/10/22 08:26:39;;;;;;;6.10;2.10;;;;;;;13.84;100.00;101101.84;5009177;28;20025;-74
2022/10/22 08:29:04;;;;;;;10.35;2.50;;;;;;;13.89;100.00;101102.31;5008929;28;20453;-74
2022/10/22 08:31:30;;;;;;;8.30;2.58;;;;;;;14.03;100.00;101112.13;5008678;28;20068;-74
2022/10/22 08:33:55;;;;;;;10.15;2.15;;;;;;;14.18;100.00;101119.09;5014491;28;20088;-75
2022/10/22 08:36:20;;;;;;;10.55;2.10;;;;;;;14.28;99.55;101113.72;5028636;28;20503;-76
2022/10/22 08:38:46;;;;;;;7.07;2.40;;;;;;;14.40;98.72;101120.88;5014974;28;20515;-75
2022/10/22 08:41:15;;;;;;;6.72;2.42;;;;;;;14.46;98.73;101120.38;5007534;28;20033;-76
2022/10/22 08:43:58;;;;;;;11.93;2.58;;;;;;;14.56;98.46;101130.59;5008312;28;20045;-74
2022/10/22 08:46:51;;;;;;;5.43;2.38;;;;;;;14.65;97.99;101129.81;5018364;28;20117;-75
2022/10/22 08:49:23;;;;;;;11.23;2.80;;;;;;;14.71;97.04;101132.00;5008537;28;20038;-74
2022/10/22 08:51:49;;;;;;;9.57;2.80;;;;;;;14.73;96.45;101136.34;5022859;28;20441;-76
2022/10/22 08:54:17;;;;;;;9.68;2.03;;;;;;;14.76;96.89;101143.44;5010640;28;20033;-75
2022/10/22 08:56:46;;;;;;;11.00;2.58;;;;;;;14.78;95.96;101141.41;5027482;28;20152;-74
2022/10/22 08:59:34;;;;;;;10.95;2.03;;;;;;;14.84;95.54;101151.88;5028396;28;20038;-75
2022/10/22 09:02:01;;;;;;;11.82;2.33;;;;;;;14.92;95.89;101156.69;5018805;28;20338;-75
2022/10/22 09:04:36;;;;;;;9.40;2.08;;;;;;;14.97;95.28;101158.03;5008769;28;20450;-74
2022/10/22 09:07:02;;;;;;;9.35;2.15;;;;;;;15.01;94.81;101172.31;5008933;28;20038;-75
2022/10/22 09:09:34;;;;;;;7.15;1.92;;;;;;;15.03;95.52;101167.59;5011605;28;20037;-74
2022/10/22 09:12:01;;;;;;;;;;;;;;;15.05;95.91;101163.72;5028657;28;20556;-74
2022/10/22 09:14:26;;;;;;;7.90;2.17;;;;;;;15.04;93.93;101167.47;5026904;28;19913;-74
2022/10/22 09:17:12;;;;;;;8.38;1.92;;;;;;;15.07;94.56;101174.56;5028122;28;20126;-74
2022/10/22 09:19:54;;;;;;;15.13;2.55;;;;;;;15.09;93.65;101175.28;5014623;28;20138;-74
2022/10/22 09:22:49;;;;;;;14.35;2.70;;;;;;;15.12;94.32;101177.78;5013726;28;20037;-74
2022/10/22 09:25:26;;;;;;;12.07;2.40;;;;;;;15.09;93.82;101180.75;5008534;28;20125;-74
2022/10/22 09:27:57;;;;;;;9.38;2.78;;;;;;;15.11;92.98;101177.88;5003875;28;20064;-75
2022/10/22 09:30:28;;;;;;;10.02;2.40;;;;;;;15.15;94.48;101182.09;5016845;28;20552;-74
2022/10/22 09:33:05;;;;;;;7.23;2.30;;;;;;;15.17;93.93;101182.84;5019417;28;20524;-74
2022/10/22 09:35:34;;;;;;;9.80;3.22;;;;;;;15.21;94.11;101192.56;5018734;28;20038;-75
2022/10/22 09:38:07;;;;;;;12.65;2.38;;;;;;;15.26;93.59;101196.63;5014390;28;20453;-74
2022/10/22 09:40:48;;;;;;;11.75;2.50;;;;;;;15.29;92.33;101198.22;5016897;28;20053;-74
2022/10/22 09:43:14;;;;;;;8.50;2.20;;;;;;;15.35;93.40;101211.41;5011512;28;20390;-75
2022/10/22 09:45:41;;;;;;;7.97;2.33;;;;;;;15.38;91.56;101207.53;5019377;28;20033;-74
2022/10/22 09:48:33;;;;;;;10.70;2.50;;;;;;;15.44;93.73;101215.25;5012701;28;20113;-74
2022/10/22 09:51:56;;;;;;;6.35;2.20;;;;;;;15.48;92.97;101214.84;5014768;28;20117;-75
2022/10/22 09:54:35;;;;;;;4.10;2.30;;;;;;;15.51;91.66;101217.28;4941415;29;20047;-75
2022/10/22 09:57:20;;;;;;;12.80;2.10;;;;;;;15.53;92.27;101219.91;4943801;29;20038;-75
2022/10/22 09:59:52;;;;;;;9.07;2.13;;;;;;;15.51;91.05;101230.13;4996875;28;20116;-74
2022/10/22 10:02:21;;;;;;;6.30;2.10;;;;;;;15.49;90.52;101235.75;5030202;28;20046;-75
2022/10/22 10:04:53;;;;;;;11.65;2.35;;;;;;;15.51;90.96;101232.88;5011783;28;20030;-75
2022/10/22 10:07:28;;;;;;;8.95;2.40;;;;;;;15.51;90.90;101239.22;5012138;28;20472;-75
2022/10/22 10:09:54;;;;;;;11.77;2.40;;;;;;;15.52;90.67;101248.31;5013427;28;20064;-74
2022/10/22 10:12:38;;;;;;;7.28;2.20;;;;;;;15.52;90.46;101249.19;5019591;28;20445;-74
2022/10/22 10:15:22;;;;;;;11.77;2.30;;;;;;;15.59;91.49;101248.69;5012237;28;20109;-74
2022/10/22 10:18:20;;;;;;;9.23;2.60;;;;;;;15.68;91.33;101251.50;5014424;28;20048;-74
2022/10/22 10:20:59;;;;;;;5.57;2.20;;;;;;;15.75;91.25;101260.94;5010360;28;20030;-74
2022/10/22 10:23:34;;;;;;;7.25;2.40;;;;;;;15.80;89.75;101261.41;5024209;28;20075;-74
2022/10/22 10:26:25;;;;;;;12.63;2.58;;;;;;;15.85;90.45;101263.72;5010525;28;20046;-75
2022/10/22 10:29:01;;;;;;;9.50;2.50;;;;;;;15.94;91.19;101265.66;5003387;28;20053;-75
2022/10/22 10:31:42;;;;;;;12.93;2.47;;;;;;;16.05;89.66;101268.34;5010980;28;20144;-75
2022/10/22 10:34:35;;;;;;;11.02;2.13;;;;;;;16.16;90.49;101258.28;5016835;28;20056;-74
2022/10/22 10:37:12;;;;;;;;;;;;;;;16.24;92.06;101258.47;5014877;28;20484;-74
2022/10/22 10:40:10;;;;;;;8.05;2.30;;;;;;;16.32;90.95;101261.41;5013955;28;19988;-75
2022/10/22 10:42:42;;;;;;;8.10;2.42;;;;;;;16.31;88.63;101270.63;5011246;28;20068;-74
2022/10/22 10:45:16;;;;;;;9.57;3.00;;;;;;;16.26;88.58;101262.78;5015668;28;20176;-74
2022/10/22 10:48:04;;;;;;;9.30;2.33;;;;;;;16.32;89.14;101269.63;5031075;28;20091;-74
2022/10/22 10:50:54;;;;;;;4.88;1.98;;;;;;;16.38;89.74;101269.06;5010979;28;20073;-74
2022/10/22 10:53:39;;;;;;;9.40;2.70;;;;;;;16.47;88.23;101273.75;5010734;28;20546;-75
2022/10/22 10:56:17;;;;;;;9.40;2.85;;;;;;;16.62;89.48;101279.72;5016269;28;20496;-74
2022/10/22 10:58:58;;;;;;;7.65;2.35;;;;;;;16.68;87.17;101276.41;5010798;28;20485;-73
2022/10/22 11:01:32;;;;;;;14.55;2.70;;;;;;;16.82;87.82;101266.91;5010520;28;20469;-74
2022/10/22 11:04:25;;;;;;;10.93;2.47;;;;;;;17.00;87.04;101267.09;5009256;28;20076;-74
2022/10/22 11:06:52;;;;;;;;;;;;;;;17.25;89.62;101271.16;5010734;28;20592;-74
2022/10/22 11:09:26;;;;;;;9.18;2.63;;;;;;;17.48;83.43;101269.00;5010327;28;20001;-73
2022/10/22 11:12:04;;;;;;;8.80;2.70;;;;;;;17.64;82.38;101266.53;5010076;28;20037;-74
2022/10/22 11:14:37;;;;;;;12.02;2.63;;;;;;;17.78;83.59;101268.00;5010488;28;20476;-74
2022/10/22 11:17:15;;;;;;;9.70;2.58;;;;;;;17.81;81.00;101265.84;5020026;28;20041;-74
2022/10/22 11:20:11;;;;;;;10.25;2.72;;;;;;;17.78;83.08;101274.38;5010878;28;20552;-74
2022/10/22 11:22:42;;;;;;;11.05;2.22;;;;;;;17.77;81.32;101271.78;5010664;28;20069;-74
2022/10/22 11:25:22;;;;;;;7.30;2.35;;;;;;;17.85;82.42;101277.38;5011435;28;20339;-74
2022/10/22 11:27:55;;;;;;;13.07;3.15;;;;;;;17.85;78.07;101267.25;5008763;28;20048;-73
2022/10/22 11:30:23;;;;;;;11.88;2.97;;;;;;;17.91;80.59;101275.97;5009912;28;20440;-74